New River MCAS /H/ /Mccutcheon Fld/ Airport
KNCA : now visible

Airfield :











YOU CAN JOIN US ON...

 
LOGIN :

Register | Disclaimer

   EN    FR    IT 

 









Legend :    VFR   Marginal VFR   IFR   Intensive IFR   Very Intensive IFR
Visi :
Ceiling :
>= 8 km
>= 3000ft
5 to 8 km
1000 to 3000 ft
1500m to 5 km
500 to 1000 ft
800 to 1500m
200 to 500 ft
< 800m
< 200 ft
Symbols :   Thunderstorms  Fog  Heavy snow  Heavy precipitations  Wind > 20 kt






- Airport Elevation : 26 ft


KNCA - New River MCAS /H/ /Mccutcheon Fld/

CURRENT METAR :
  • 081956Z AUTO 35008KT 10SM BKN035 OVC045 13/07 A3029 RMK AO2 SLP259 T01330067

EXPIRED METARs :
  • 081856Z AUTO 36008KT 10SM OVC050 12/06 A3031 RMK AO2 SLP265 T01220056
  • 081756Z AUTO 01010KT 10SM FEW038 OVC060 12/05 A3034 RMK AO2 SLP275 T01170050 10117 20011 58023 $

TAF TAF KNCA
Valid from the 08 at 15:00 until the 09 at 15:00 UTC


0815/0915 04012KT 9999 FEW100 QNH3030INS
BECMG 0819/0821 VRB06KT 9999 BKN030 OVC060 QNH3028INS
FM090000 VRB06KT 9999 VCSH BKN030 OVC050 QNH3020INS
TEMPO 0900/0906 4800 SHRA BR BKN020
FM090600 17010G18KT 9999 VCSH BKN020 OVC050 QNH3012INS
TEMPO 0906/0912 4800 SHRA BR BKN010 T07/0815Z T20/0915Z



MET'MAP, your aeronautical weather chart ! - Copyright ORBIFLY December 2007 - Disclaimer

ORBIFLY MET'MAP TEAM :

Programming & Development : Alexandra Zaïnal
Concept & original design : Baudouin d'Aumeries
Assistance for programming : Marc-Olivier Méhu
Technical & hardware support : Manuel Goepfert

Contact : metmap@orbifly.com




SOURCES & CREDITS :

   NOAA       Earth
Advisory